Time;durP1;ratioP1;P1;durP2;ratioP2;P2;SDS_P1;SDS_P2;PMS_P1;PMS_P2;Temp;Humidity;BMP_temperature;BMP_pressure;BME280_temperature;BME280_humidity;BME280_pressure;Samples;Min_cycle;Max_cycle;Signal;HPM_P1;HPM_P2
2021/05/01 00:00:43;;;;;;;;;;;;;;;17.19;66.61;100204.84;4936792;29;20305;-81
2021/05/01 00:03:28;;;;;;;;;;;;;;;17.18;66.43;100200.50;4938878;29;20368;-82
2021/05/01 00:06:13;;;;;;;;;;;;;;;17.18;67.16;100195.00;4931599;29;19915;-81
2021/05/01 00:08:57;;;;;;;;;;;;;;;17.17;67.79;100182.44;4935578;29;20406;-80
2021/05/01 00:11:41;;;;;;;;;;;;;;;17.17;68.00;100172.22;4940849;29;20388;-81
2021/05/01 00:14:26;;;;;;;;;;;;;;;17.17;68.22;100180.47;4926842;29;20388;-81
2021/05/01 00:17:12;;;;;;;;;;;;;;;17.16;68.31;100175.38;4921129;29;19922;-80
2021/05/01 00:19:56;;;;;;;;;;;;;;;17.14;68.26;100177.69;4939121;29;19918;-80
2021/05/01 00:22:41;;;;;;;;;;;;;;;17.11;68.39;100173.72;4934632;29;20304;-81
2021/05/01 00:25:26;;;;;;;;;;;;;;;17.09;68.37;100171.34;4921033;28;19919;-81
2021/05/01 00:28:11;;;;;;;;;;;;;;;17.07;68.40;100176.41;4930170;29;19915;-80
2021/05/01 00:30:55;;;;;;;;;;;;;;;17.05;68.34;100176.00;4938058;29;19922;-80
2021/05/01 00:33:40;;;;;;;;;;;;;;;17.04;68.18;100179.91;4926251;29;19915;-82
2021/05/01 00:36:25;;;;;;;;;;;;;;;17.02;67.97;100179.47;4929486;29;19915;-80
2021/05/01 00:39:09;;;;;;;;;;;;;;;17.00;68.29;100176.34;4938910;29;20336;-82
2021/05/01 00:41:54;;;;;;;;;;;;;;;16.98;68.36;100178.66;4937210;29;19919;-81
2021/05/01 00:44:38;;;;;;;;;;;;;;;16.96;67.34;100178.25;4934234;29;19919;-82
2021/05/01 00:47:23;;;;;;;;;;;;;;;16.95;67.70;100176.66;4938683;29;19914;-82
2021/05/01 00:50:09;;;;;;;;;;;;;;;16.94;67.78;100179.75;4936232;29;19915;-80
2021/05/01 00:52:53;;;;;;;;;;;;;;;16.91;68.17;100181.31;4934916;29;20401;-82
2021/05/01 00:55:40;;;;;;;;;;;;;;;16.90;67.88;100187.16;4937070;29;20315;-80
2021/05/01 00:58:24;;;;;;;;;;;;;;;16.89;67.76;100188.31;4935888;29;19914;-79
2021/05/01 01:03:53;;;;;;;;;;;;;;;16.83;66.21;100195.28;4930703;29;19915;-80
2021/05/01 01:06:37;;;;;;;;;;;;;;;16.81;65.80;100192.13;4932410;29;19915;-82
2021/05/01 01:09:22;;;;;;;;;;;;;;;16.78;65.42;100193.66;4933214;29;19915;-80
2021/05/01 01:12:06;;;;;;;;;;;;;;;16.78;66.16;100196.41;4921194;29;19918;-81
2021/05/01 01:14:51;;;;;;;;;;;;;;;16.78;66.97;100204.63;4925631;29;20301;-81
2021/05/01 01:17:36;;;;;;;;;;;;;;;16.77;67.00;100211.28;4917932;29;19919;-82
2021/05/01 01:20:21;;;;;;;;;;;;;;;16.75;67.83;100201.84;4930427;29;19915;-81
2021/05/01 01:23:08;;;;;;;;;;;;;;;16.74;68.51;100203.00;4937693;29;19922;-80
2021/05/01 01:25:53;;;;;;;;;;;;;;;16.71;66.07;100204.50;4932718;29;20385;-82
2021/05/01 01:28:37;;;;;;;;;;;;;;;16.70;65.58;100213.16;4931905;29;19923;-81
2021/05/01 01:31:22;;;;;;;;;;;;;;;16.68;67.23;100200.56;4931793;29;19923;-82
2021/05/01 01:34:08;;;;;;;;;;;;;;;16.65;66.68;100206.00;4930561;29;19918;-81
2021/05/01 01:36:54;;;;;;;;;;;;;;;16.63;64.92;100208.31;4945290;29;19914;-81
2021/05/01 01:39:40;;;;;;;;;;;;;;;16.63;66.78;100202.84;4939942;29;19915;-81
2021/05/01 01:42:25;;;;;;;;;;;;;;;16.61;67.54;100203.19;4936283;29;19919;-82
2021/05/01 01:45:15;;;;;;;;;;;;;;;16.56;66.41;100197.97;4943672;29;19914;-81
2021/05/01 01:48:00;;;;;;;;;;;;;;;16.58;67.95;100203.94;4937275;29;20336;-80
2021/05/01 01:50:45;;;;;;;;;;;;;;;16.57;68.51;100201.53;4940097;29;20021;-82
2021/05/01 01:53:31;;;;;;;;;;;;;;;16.55;69.20;100204.66;4934925;29;19915;-81
2021/05/01 01:56:15;;;;;;;;;;;;;;;16.54;69.58;100203.06;4936366;29;20309;-82
2021/05/01 01:59:00;;;;;;;;;;;;;;;16.52;69.78;100197.13;4919797;29;20378;-80
2021/05/01 02:01:45;;;;;;;;;;;;;;;16.54;70.19;100205.00;4931702;29;19923;-81
2021/05/01 02:04:33;;;;;;;;;;;;;;;16.53;70.26;100204.22;4940660;29;19915;-82
2021/05/01 02:07:18;;;;;;;;;;;;;;;16.53;70.35;100187.75;4936714;29;19923;-82
2021/05/01 02:10:04;;;;;;;;;;;;;;;16.52;70.51;100186.16;4934613;29;19914;-81
2021/05/01 02:12:49;;;;;;;;;;;;;;;16.51;70.63;100173.59;4940502;29;19914;-81
2021/05/01 02:15:34;;;;;;;;;;;;;;;16.51;70.69;100176.34;4938173;29;19915;-82
2021/05/01 02:18:19;;;;;;;;;;;;;;;16.50;70.90;100179.47;4934034;29;20296;-82
2021/05/01 02:21:04;;;;;;;;;;;;;;;16.48;70.38;100174.34;4945908;29;19918;-82
2021/05/01 02:23:49;;;;;;;;;;;;;;;16.47;70.62;100174.69;4942323;29;19915;-81
2021/05/01 02:26:34;;;;;;;;;;;;;;;16.46;70.54;100173.09;4928821;29;19915;-81
2021/05/01 02:29:19;;;;;;;;;;;;;;;16.44;70.52;100172.69;4937319;29;19915;-80
2021/05/01 02:32:03;;;;;;;;;;;;;;;16.44;70.83;100178.97;4940957;29;19914;-80
2021/05/01 02:34:48;;;;;;;;;;;;;;;16.42;70.86;100169.53;4924791;29;19915;-81
2021/05/01 02:37:33;;;;;;;;;;;;;;;16.40;71.12;100166.38;4942433;29;19915;-80
2021/05/01 02:40:18;;;;;;;;;;;;;;;16.39;71.32;100170.25;4940510;29;19914;-81
2021/05/01 02:43:07;;;;;;;;;;;;;;;16.38;71.33;100168.66;4937565;29;20381;-80
2021/05/01 02:45:52;;;;;;;;;;;;;;;16.39;71.40;100170.25;4938869;29;19914;-82
2021/05/01 02:48:36;;;;;;;;;;;;;;;16.38;71.25;100160.44;4940520;29;20324;-82
2021/05/01 02:51:22;;;;;;;;;;;;;;;16.37;71.54;100156.09;4942494;29;19930;-79
2021/05/01 02:54:07;;;;;;;;;;;;;;;16.35;71.44;100161.97;4939616;29;19915;-80
2021/05/01 02:56:52;;;;;;;;;;;;;;;16.35;71.60;100163.94;4940579;29;19915;-78
2021/05/01 02:59:36;;;;;;;;;;;;;;;16.34;71.73;100167.81;4929892;29;19914;-81
2021/05/01 03:02:20;;;;;;;;;;;;;;;16.32;71.56;100165.44;4934139;29;19919;-82
2021/05/01 03:05:05;;;;;;;;;;;;;;;16.34;71.48;100165.88;4922050;29;19919;-79
2021/05/01 03:07:50;;;;;;;;;;;;;;;16.37;71.58;100172.56;4924405;29;19914;-82
2021/05/01 03:10:35;;;;;;;;;;;;;;;16.37;71.63;100172.56;4928484;29;19915;-81
2021/05/01 03:13:20;;;;;;;;;;;;;;;16.35;71.71;100163.94;4936827;29;19915;-80
2021/05/01 03:16:05;;;;;;;;;;;;;;;16.33;71.80;100155.25;4937552;29;19915;-79
2021/05/01 03:18:49;;;;;;;;;;;;;;;16.31;71.98;100163.84;4937717;29;19918;-78
2021/05/01 03:21:34;;;;;;;;;;;;;;;16.30;71.89;100162.28;4937568;29;20297;-79
2021/05/01 03:24:18;;;;;;;;;;;;;;;16.31;71.89;100160.31;4936445;29;20381;-80
2021/05/01 03:27:03;;;;;;;;;;;;;;;16.30;71.87;100165.03;4936423;29;19914;-81
2021/05/01 03:29:48;;;;;;;;;;;;;;;16.29;71.91;100166.19;4938728;29;19923;-80
2021/05/01 03:32:33;;;;;;;;;;;;;;;16.27;72.02;100169.28;4920503;29;19915;-80
2021/05/01 03:35:18;;;;;;;;;;;;;;;16.25;71.91;100166.09;4935544;29;19915;-81
2021/05/01 03:38:03;;;;;;;;;;;;;;;16.25;71.82;100168.84;4941482;29;20377;-81
2021/05/01 03:40:48;;;;;;;;;;;;;;;16.25;71.73;100166.09;4931950;29;20389;-78
2021/05/01 03:43:33;;;;;;;;;;;;;;;16.24;71.71;100161.81;4931139;29;19918;-80
2021/05/01 03:46:17;;;;;;;;;;;;;;;16.23;71.89;100157.47;4935481;29;19923;-80
2021/05/01 03:49:02;;;;;;;;;;;;;;;16.21;71.94;100154.28;4939248;29;19915;-80
2021/05/01 03:51:47;;;;;;;;;;;;;;;16.18;71.82;100160.53;4924634;29;20386;-81
2021/05/01 03:54:32;;;;;;;;;;;;;;;16.19;71.90;100161.31;4924159;29;19915;-82
2021/05/01 03:57:16;;;;;;;;;;;;;;;16.18;71.89;100171.50;4939631;29;19915;-81
2021/05/01 04:00:03;;;;;;;;;;;;;;;16.18;71.75;100160.53;4937783;29;19915;-81
2021/05/01 04:02:49;;;;;;;;;;;;;;;16.16;71.71;100178.50;4924419;29;19919;-81
2021/05/01 04:05:34;;;;;;;;;;;;;;;16.16;71.44;100190.25;4919921;29;19915;-80
2021/05/01 04:08:19;;;;;;;;;;;;;;;16.15;71.14;100199.63;4924053;29;19915;-82
2021/05/01 04:11:05;;;;;;;;;;;;;;;16.15;70.93;100191.41;4941660;29;19915;-82
2021/05/01 04:13:50;;;;;;;;;;;;;;;16.12;71.30;100192.16;4939554;29;19914;-81
2021/05/01 04:16:34;;;;;;;;;;;;;;;16.13;71.13;100201.19;4936391;29;20308;-81
2021/05/01 04:19:20;;;;;;;;;;;;;;;16.10;71.02;100213.66;4941430;29;19915;-80
2021/05/01 04:22:04;;;;;;;;;;;;;;;16.10;71.09;100221.88;4933886;29;19923;-82
2021/05/01 04:24:50;;;;;;;;;;;;;;;16.09;71.21;100223.06;4933033;29;19915;-83
2021/05/01 04:27:34;;;;;;;;;;;;;;;16.09;70.98;100216.78;4923345;29;19915;-83
2021/05/01 04:30:19;;;;;;;;;;;;;;;16.07;70.55;100222.63;4939660;29;19915;-82
2021/05/01 04:33:04;;;;;;;;;;;;;;;16.07;70.73;100236.34;4936740;29;19955;-81
2021/05/01 04:35:49;;;;;;;;;;;;;;;16.07;71.06;100243.78;4926347;29;19915;-81
2021/05/01 04:38:33;;;;;;;;;;;;;;;16.06;70.93;100245.72;4930339;29;19915;-80
2021/05/01 04:41:18;;;;;;;;;;;;;;;16.05;70.68;100249.63;4937211;29;20532;-81
2021/05/01 04:44:03;;;;;;;;;;;;;;;16.05;71.02;100246.88;4931833;29;19923;-80
2021/05/01 04:46:49;;;;;;;;;;;;;;;16.05;71.05;100252.34;4939750;29;19915;-81
2021/05/01 04:49:34;;;;;;;;;;;;;;;16.04;71.28;100253.53;4934705;29;20409;-81
2021/05/01 04:52:19;;;;;;;;;;;;;;;16.04;71.31;100250.00;4933154;29;19915;-79
2021/05/01 04:55:12;;;;;;;;;;;;;;;16.04;71.58;100248.03;4920311;29;19914;-82
2021/05/01 04:57:57;;;;;;;;;;;;;;;16.03;71.59;100254.69;4920938;29;19919;-82
2021/05/01 05:00:42;;;;;;;;;;;;;;;16.02;71.86;100253.09;4939488;29;19934;-81
2021/05/01 05:03:27;;;;;;;;;;;;;;;16.02;71.68;100255.84;4925489;29;20337;-80
2021/05/01 05:06:12;;;;;;;;;;;;;;;16.02;71.79;100261.31;4929390;29;19915;-80
2021/05/01 05:08:59;;;;;;;;;;;;;;;16.02;71.78;100264.06;4936750;29;19919;-79
2021/05/01 05:11:44;;;;;;;;;;;;;;;16.03;71.87;100262.13;4939596;29;20382;-82
2021/05/01 05:14:29;;;;;;;;;;;;;;;16.02;71.82;100258.56;4918527;29;19914;-80
2021/05/01 05:17:13;;;;;;;;;;;;;;;16.03;72.00;100260.16;4935140;29;19914;-80
2021/05/01 05:19:58;;;;;;;;;;;;;;;16.04;71.06;100250.78;4939633;29;19914;-80
2021/05/01 05:22:43;;;;;;;;;;;;;;;16.05;70.87;100254.34;4937556;29;19919;-80
2021/05/01 05:25:28;;;;;;;;;;;;;;;16.04;70.60;100258.22;4935411;29;20385;-81
2021/05/01 05:28:13;;;;;;;;;;;;;;;16.03;70.09;100257.44;4937831;29;19931;-79
2021/05/01 05:30:57;;;;;;;;;;;;;;;16.05;69.56;100254.34;4940702;29;19919;-81
2021/05/01 05:33:42;;;;;;;;;;;;;;;16.05;70.56;100252.34;4932069;29;19915;-79
2021/05/01 05:36:26;;;;;;;;;;;;;;;16.04;70.93;100245.31;4940806;29;20380;-81
2021/05/01 05:39:11;;;;;;;;;;;;;;;16.06;70.86;100239.44;4938804;29;19914;-81
2021/05/01 05:41:57;;;;;;;;;;;;;;;16.08;71.08;100237.13;4937266;29;19919;-81
2021/05/01 05:44:45;;;;;;;;;;;;;;;16.08;71.16;100232.44;4915148;29;19914;-81
2021/05/01 05:47:29;;;;;;;;;;;;;;;16.09;70.98;100241.47;4941086;29;19915;-80
2021/05/01 05:50:14;;;;;;;;;;;;;;;16.09;71.04;100247.75;4937469;29;19915;-80
2021/05/01 05:52:58;;;;;;;;;;;;;;;16.12;71.22;100249.75;4940331;29;19918;-81
2021/05/01 05:55:42;;;;;;;;;;;;;;;16.13;71.54;100247.81;4959226;23;19915;-84
2021/05/01 05:58:27;;;;;;;;;;;;;;;16.14;71.61;100244.72;4957717;28;19923;-83
2021/05/01 06:01:12;;;;;;;;;;;;;;;16.51;69.74;100242.22;4956295;28;20388;-75
2021/05/01 06:03:57;;;;;;;;;;;;;;;16.86;68.18;100239.31;4955606;28;19918;-75
2021/05/01 06:06:54;;;;;;;;;;;;;;;17.01;67.27;100227.38;4941932;29;20297;-76
2021/05/01 06:09:39;;;;;;;;;;;;;;;16.95;67.32;100223.34;4952923;28;19914;-76
2021/05/01 06:12:24;;;;;;;;;;;;;;;17.04;67.25;100218.38;4949820;28;20397;-76
2021/05/01 06:15:13;;;;;;;;;;;;;;;17.22;66.66;100212.34;4958488;28;19914;-76
2021/05/01 06:17:59;;;;;;;;;;;;;;;17.34;66.13;100209.34;4960228;28;20388;-76
2021/05/01 06:20:44;;;;;;;;;;;;;;;17.16;67.02;100217.38;4958125;28;19914;-76
2021/05/01 06:23:28;;;;;;;;;;;;;;;17.04;66.76;100207.38;4961387;28;19919;-76
2021/05/01 06:26:13;;;;;;;;;;;;;;;16.84;67.60;100213.34;4943773;29;19914;-75
2021/05/01 06:28:59;;;;;;;;;;;;;;;16.99;67.14;100204.97;4955002;29;19915;-76
2021/05/01 06:31:44;;;;;;;;;;;;;;;17.24;66.85;100202.56;4962166;28;19915;-75
2021/05/01 06:34:29;;;;;;;;;;;;;;;17.56;65.28;100210.41;4954583;28;19914;-75
2021/05/01 06:37:16;;;;;;;;;;;;;;;17.28;65.76;100211.63;4958272;28;19914;-75
2021/05/01 06:40:07;;;;;;;;;;;;;;;17.37;66.08;100200.38;4960535;28;19914;-74
2021/05/01 06:42:58;;;;;;;;;;;;;;;17.87;64.59;100199.03;4950334;28;19918;-75
2021/05/01 06:45:44;;;;;;;;;;;;;;;17.96;64.55;100207.78;4944534;28;19914;-75
2021/05/01 06:48:30;;;;;;;;;;;;;;;17.92;64.52;100213.25;4950449;28;19915;-76
2021/05/01 06:51:15;;;;;;;;;;;;;;;17.94;64.71;100221.09;4958517;28;19915;-76
2021/05/01 06:53:59;;;;;;;;;;;;;;;18.10;64.02;100231.88;4938271;28;20462;-76
2021/05/01 06:56:44;;;;;;;;;;;;;;;18.12;65.04;100232.31;4942214;28;19914;-79
2021/05/01 06:59:28;;;;;;;;;;;;;;;18.59;61.89;100231.59;4942210;29;19915;-75
2021/05/01 07:02:13;;;;;;;;;;;;;;;18.88;60.42;100244.41;4937422;29;19919;-75
2021/05/01 07:04:58;;;;;;;;;;;;;;;18.93;60.24;100243.28;4951869;29;20293;-76
2021/05/01 07:07:44;;;;;;;;;;;;;;;18.84;60.07;100254.63;4938241;29;20381;-76
2021/05/01 07:10:28;;;;;;;;;;;;;;;18.25;62.62;100258.38;4939012;29;20377;-76
2021/05/01 07:13:14;;;;;;;;;;;;;;;18.48;62.20;100260.97;4948977;28;19915;-75
2021/05/01 07:16:02;;;;;;;;;;;;;;;19.27;60.00;100258.44;4959698;28;19915;-76
2021/05/01 07:18:47;;;;;;;;;;;;;;;19.39;59.14;100260.09;4958247;28;19915;-76
2021/05/01 07:21:31;;;;;;;;;;;;;;;19.87;57.65;100264.28;4961625;28;19915;-76
2021/05/01 07:24:16;;;;;;;;;;;;;;;20.09;56.74;100270.66;4959655;28;19923;-76
2021/05/01 07:27:01;;;;;;;;;;;;;;;19.49;58.18;100271.22;4957711;29;19914;-78
2021/05/01 07:29:47;;;;;;;;;;;;;;;20.21;57.26;100256.50;4965978;28;20320;-77
2021/05/01 07:32:37;;;;;;;;;;;;;;;20.62;55.95;100251.44;4960401;28;20300;-78
2021/05/01 07:35:24;;;;;;;;;;;;;;;21.18;53.75;100242.34;4958051;28;20268;-77
2021/05/01 07:38:13;;;;;;;;;;;;;;;21.22;53.32;100245.13;4966828;28;19914;-78
2021/05/01 07:41:01;;;;;;;;;;;;;;;21.71;52.20;100258.00;4967541;28;19914;-78
2021/05/01 07:43:46;;;;;;;;;;;;;;;21.29;51.51;100259.69;4962726;28;20312;-77
2021/05/01 07:46:32;;;;;;;;;;;;;;;22.86;48.92;100254.94;4961876;28;19914;-78
2021/05/01 07:49:17;;;;;;;;;;;;;;;24.10;45.29;100250.78;4951425;29;19915;-78
2021/05/01 07:52:03;;;;;;;;;;;;;;;25.86;40.40;100264.84;4952232;29;19914;-78
2021/05/01 07:54:47;;;;;;;;;;;;;;;26.71;39.22;100268.53;4956590;28;19914;-78
2021/05/01 07:57:32;;;;;;;;;;;;;;;25.25;40.96;100258.88;4943411;28;19914;-78
2021/05/01 08:00:18;;;;;;;;;;;;;;;26.90;38.51;100255.72;4951641;28;19914;-78
2021/05/01 08:03:04;;;;;;;;;;;;;;;27.26;36.02;100253.56;4971165;28;19923;-79
2021/05/01 08:05:49;;;;;;;;;;;;;;;28.84;34.59;100252.84;4961991;28;19914;-78
2021/05/01 08:08:34;;;;;;;;;;;;;;;31.35;30.23;100253.53;4965201;28;20324;-78
2021/05/01 08:11:19;;;;;;;;;;;;;;;31.58;29.16;100256.97;4948206;29;19914;-79
2021/05/01 08:14:03;;;;;;;;;;;;;;;30.08;30.99;100247.56;4967129;28;19914;-79
2021/05/01 08:16:48;;;;;;;;;;;;;;;26.22;37.79;100239.81;4945685;28;20376;-79
2021/05/01 08:19:32;;;;;;;;;;;;;;;24.01;43.67;100227.50;4950624;29;19914;-78
2021/05/01 08:22:17;;;;;;;;;;;;;;;22.91;46.76;100224.00;4966619;28;19918;-78
2021/05/01 08:25:06;;;;;;;;;;;;;;;22.36;48.89;100226.78;4959367;28;19914;-78
2021/05/01 08:27:51;;;;;;;;;;;;;;;22.11;48.46;100226.97;4955274;28;19914;-78
2021/05/01 08:30:36;;;;;;;;;;;;;;;21.93;49.62;100229.03;4957829;28;19922;-77
2021/05/01 08:33:22;;;;;;;;;;;;;;;22.05;49.79;100213.94;4952266;28;19915;-77
2021/05/01 08:36:07;;;;;;;;;;;;;;;22.06;49.64;100210.78;4953864;28;19914;-78
2021/05/01 08:38:51;;;;;;;;;;;;;;;21.89;50.73;100208.88;4958840;28;19914;-78
2021/05/01 08:41:36;;;;;;;;;;;;;;;21.19;53.26;100210.75;4940652;29;19922;-88
2021/05/01 08:44:21;;;;;;;;;;;;;;;20.96;53.95;100202.09;4955593;28;19918;-76
2021/05/01 08:47:05;;;;;;;;;;;;;;;21.40;52.17;100187.75;4955104;28;19918;-76
2021/05/01 08:49:50;;;;;;;;;;;;;;;20.77;54.47;100183.16;4938644;29;19915;-76
2021/05/01 08:52:35;;;;;;;;;;;;;;;20.21;55.88;100179.19;4936773;29;19915;-75
2021/05/01 08:55:23;;;;;;;;;;;;;;;20.36;54.82;100180.81;4940655;29;19914;-75
2021/05/01 08:58:09;;;;;;;;;;;;;;;20.38;54.69;100177.63;4938939;29;19914;-75
2021/05/01 09:00:54;;;;;;;;;;;;;;;20.69;54.06;100181.56;4936692;29;19914;-75
2021/05/01 09:03:40;;;;;;;;;;;;;;;20.29;54.76;100180.78;4940388;29;19918;-77
2021/05/01 09:06:25;;;;;;;;;;;;;;;20.39;54.68;100179.22;4938833;29;20309;-77
2021/05/01 09:09:11;;;;;;;;;;;;;;;20.87;53.08;100171.31;4937141;29;19922;-77
2021/05/01 09:11:55;;;;;;;;;;;;;;;20.94;53.10;100176.81;4940770;29;19915;-76
2021/05/01 09:14:40;;;;;;;;;;;;;;;20.59;53.85;100168.56;4957033;28;19922;-79
2021/05/01 09:17:24;;;;;;;;;;;;;;;20.94;52.51;100165.75;4960893;28;19914;-80
2021/05/01 09:20:10;;;;;;;;;;;;;;;20.97;53.01;100164.16;4968608;28;19919;-76
2021/05/01 09:22:58;;;;;;;;;;;;;;;20.78;54.13;100146.03;4968607;28;19922;-80
2021/05/01 09:25:53;;;;;;;;;;;;;;;21.27;53.89;100139.63;4964146;28;19914;-77
2021/05/01 09:28:39;;;;;;;;;;;;;;;28.05;35.89;100141.88;4965754;28;19914;-81
2021/05/01 09:31:27;;;;;;;;;;;;;;;29.04;34.90;100153.75;4968040;28;19914;-80
2021/05/01 09:34:11;;;;;;;;;;;;;;;28.22;35.72;100133.38;4949062;29;19914;-84
2021/05/01 09:36:56;;;;;;;;;;;;;;;27.62;36.03;100136.06;4967923;28;20380;-82
2021/05/01 09:39:55;;;;;;;;;;;;;;;27.08;35.79;100136.78;4968554;28;19915;-81
2021/05/01 09:42:42;;;;;;;;;;;;;;;28.49;33.50;100131.66;4958588;28;19918;-77
2021/05/01 09:45:27;;;;;;;;;;;;;;;26.62;37.57;100114.91;4963991;28;20296;-80
2021/05/01 09:48:16;;;;;;;;;;;;;;;22.86;44.62;100116.28;4961965;28;19914;-82
2021/05/01 09:51:02;;;;;;;;;;;;;;;26.43;38.37;100108.25;4966521;28;19914;-83
2021/05/01 09:53:48;;;;;;;;;;;;;;;25.43;39.26;100120.16;4965709;28;19914;-81
2021/05/01 09:56:33;;;;;;;;;;;;;;;25.45;40.80;100112.13;4965439;28;19914;-82
2021/05/01 09:59:17;;;;;;;;;;;;;;;24.32;43.81;100104.00;4964831;29;19914;-81
2021/05/01 10:02:02;;;;;;;;;;;;;;;24.96;39.84;100098.03;4965245;29;19914;-83
2021/05/01 10:05:03;;;;;;;;;;;;;;;25.28;39.44;100097.41;4967093;29;19918;-81
2021/05/01 10:07:50;;;;;;;;;;;;;;;24.51;43.05;100088.56;4962171;29;19914;-81
2021/05/01 10:10:42;;;;;;;;;;;;;;;22.79;45.24;100083.13;4963644;29;19915;-80
2021/05/01 10:13:27;;;;;;;;;;;;;;;22.60;47.05;100078.91;4962745;29;19918;-81
2021/05/01 10:16:11;;;;;;;;;;;;;;;22.33;46.63;100074.47;4946250;29;19915;-82
2021/05/01 10:19:10;;;;;;;;;;;;;;;21.73;49.30;100072.94;4967261;28;19922;-79
2021/05/01 10:21:55;;;;;;;;;;;;;;;21.80;49.26;100070.13;4967310;28;19914;-81
2021/05/01 10:24:40;;;;;;;;;;;;;;;21.54;49.51;100065.16;4950201;28;19926;-80
2021/05/01 10:27:25;;;;;;;;;;;;;;;21.18;49.60;100070.13;4959555;28;19918;-80
2021/05/01 10:30:33;;;;;;;;;;;;;;;20.85;51.21;100074.16;4965441;29;19914;-79
2021/05/01 10:33:33;;;;;;;;;;;;;;;21.55;49.44;100063.97;4963740;29;19918;-80
2021/05/01 10:36:26;;;;;;;;;;;;;;;23.77;43.94;100069.13;4962023;29;19914;-81
2021/05/01 10:39:12;;;;;;;;;;;;;;;23.90;43.08;100071.31;4969332;29;19914;-79
2021/05/01 10:41:58;;;;;;;;;;;;;;;23.04;44.93;100066.19;4963030;28;20300;-80
2021/05/01 10:44:53;;;;;;;;;;;;;;;23.16;43.93;100062.84;4960913;28;19919;-80
2021/05/01 10:47:38;;;;;;;;;;;;;;;21.76;46.13;100055.53;4960750;28;19918;-80
2021/05/01 10:50:22;;;;;;;;;;;;;;;21.38;48.13;100051.84;4964681;28;20372;-80
2021/05/01 10:53:17;;;;;;;;;;;;;;;21.24;48.56;100047.16;4963467;28;19914;-80
2021/05/01 10:56:02;;;;;;;;;;;;;;;21.05;48.59;100038.53;4967822;28;19918;-78
2021/05/01 10:58:47;;;;;;;;;;;;;;;21.22;49.31;100048.75;4969653;28;19918;-80
2021/05/01 11:01:33;;;;;;;;;;;;;;;21.31;50.44;100055.44;4963616;28;19914;-80
2021/05/01 11:04:20;;;;;;;;;;;;;;;21.88;48.92;100048.72;4969168;28;19918;-80
2021/05/01 11:07:08;;;;;;;;;;;;;;;21.75;50.45;100045.63;4964376;28;19918;-79
2021/05/01 11:09:58;;;;;;;;;;;;;;;21.68;49.34;100042.94;4964188;28;19915;-76
2021/05/01 11:12:51;;;;;;;;;;;;;;;21.31;50.22;100049.09;4961797;28;20284;-76
2021/05/01 11:15:45;;;;;;;;;;;;;;;21.13;50.51;100037.34;4960292;28;20394;-76
2021/05/01 11:18:34;;;;;;;;;;;;;;;20.90;50.65;100038.59;4957506;28;19914;-76
2021/05/01 11:21:20;;;;;;;;;;;;;;;20.84;51.02;100033.88;4961236;28;19914;-76
2021/05/01 11:24:05;;;;;;;;;;;;;;;20.80;51.49;100028.38;4956729;28;19918;-76
2021/05/01 11:26:50;;;;;;;;;;;;;;;20.73;51.48;100030.38;4952875;28;20296;-76
2021/05/01 11:29:35;;;;;;;;;;;;;;;20.70;51.86;100023.69;4959627;28;20388;-76
2021/05/01 11:32:21;;;;;;;;;;;;;;;20.84;51.93;100014.53;4941586;29;19914;-76
2021/05/01 11:35:07;;;;;;;;;;;;;;;20.79;51.43;100003.91;4952954;29;19918;-75
2021/05/01 11:37:53;;;;;;;;;;;;;;;20.85;51.42;100002.31;4953375;28;19919;-75
2021/05/01 11:40:40;;;;;;;;;;;;;;;20.77;51.74;99998.78;4957101;28;19915;-77
2021/05/01 11:43:26;;;;;;;;;;;;;;;20.74;51.68;99993.25;4948029;29;20308;-76
2021/05/01 11:46:43;;;;;;;;;;;;;;;20.91;51.55;99984.13;4955700;29;19914;-76
2021/05/01 11:49:32;;;;;;;;;;;;;;;20.97;49.90;99976.97;4912254;29;19914;-76
2021/05/01 11:52:29;;;;;;;;;;;;;;;20.92;48.96;99969.91;4942226;29;19915;-76
2021/05/01 11:55:20;;;;;;;;;;;;;;;21.06;47.62;99973.75;4939733;29;19915;-76
2021/05/01 11:58:06;;;;;;;;;;;;;;;20.84;49.81;99964.78;4980704;23;19926;-79
2021/05/01 12:00:51;;;;;;;;;;;;;;;20.96;47.80;99963.56;4976599;28;19918;-79
2021/05/01 12:03:36;;;;;;;;;;;;;;;21.15;44.66;99952.78;4980738;28;19918;-79
2021/05/01 12:06:41;;;;;;;;;;;;;;;21.02;46.61;99959.97;4979310;28;19914;-79
2021/05/01 12:09:30;;;;;;;;;;;;;;;20.89;48.34;99950.56;4976858;28;19914;-79
2021/05/01 12:12:16;;;;;;;;;;;;;;;20.55;49.55;99944.81;4980242;28;19913;-77
2021/05/01 12:15:01;;;;;;;;;;;;;;;20.58;49.87;99943.19;4978330;28;19914;-79
2021/05/01 12:17:49;;;;;;;;;;;;;;;20.84;48.21;99940.72;4976708;28;19914;-77
2021/05/01 12:20:35;;;;;;;;;;;;;;;20.85;48.31;99931.22;4980440;28;19917;-78
2021/05/01 12:23:39;;;;;;;;;;;;;;;20.94;47.42;99930.78;4978531;28;19918;-78
2021/05/01 12:26:36;;;;;;;;;;;;;;;20.91;48.93;99926.06;4966528;28;19914;-78
2021/05/01 12:29:21;;;;;;;;;;;;;;;20.83;48.67;99924.53;4979158;28;19914;-78
2021/05/01 12:32:07;;;;;;;;;;;;;;;20.67;49.16;99916.72;4975026;28;19918;-79
2021/05/01 12:34:56;;;;;;;;;;;;;;;20.56;50.17;99918.75;4977546;28;19914;-78
2021/05/01 12:37:41;;;;;;;;;;;;;;;20.46;50.88;99908.56;4978124;28;19914;-79
2021/05/01 12:40:26;;;;;;;;;;;;;;;20.37;50.93;99911.72;4973545;28;19913;-77
2021/05/01 12:43:29;;;;;;;;;;;;;;;20.35;51.50;99903.06;4957674;28;19918;-77
2021/05/01 12:46:15;;;;;;;;;;;;;;;20.30;51.93;99905.41;4968967;28;19914;-78
2021/05/01 12:49:02;;;;;;;;;;;;;;;20.37;51.68;99894.34;4968180;28;19914;-77
2021/05/01 12:52:02;;;;;;;;;;;;;;;20.35;51.96;99892.03;4957280;28;19914;-77
2021/05/01 12:54:55;;;;;;;;;;;;;;;20.32;52.01;99884.53;4966837;28;19915;-76
2021/05/01 12:57:40;;;;;;;;;;;;;;;20.24;52.15;99877.44;4961108;28;19914;-78
2021/05/01 13:00:29;;;;;;;;;;;;;;;20.22;52.33;99871.53;4968860;28;19915;-78
2021/05/01 13:03:17;;;;;;;;;;;;;;;20.20;52.40;99884.94;4965814;28;19918;-77
2021/05/01 13:06:03;;;;;;;;;;;;;;;20.17;52.34;99877.44;4971087;28;19918;-77
2021/05/01 13:08:47;;;;;;;;;;;;;;;20.14;52.61;99863.66;4970541;28;19918;-76
2021/05/01 13:11:32;;;;;;;;;;;;;;;20.14;52.31;99863.66;4966121;28;19914;-77
2021/05/01 13:14:18;;;;;;;;;;;;;;;20.08;52.95;99861.31;4970720;28;19914;-78
2021/05/01 13:17:04;;;;;;;;;;;;;;;20.04;53.26;99857.00;4970299;28;19918;-79
2021/05/01 13:19:55;;;;;;;;;;;;;;;20.04;53.20;99843.22;4968182;28;19914;-77
2021/05/01 13:22:47;;;;;;;;;;;;;;;20.01;53.00;99835.75;4970481;28;20154;-78
2021/05/01 13:25:36;;;;;;;;;;;;;;;20.00;53.33;99837.72;4968027;28;19914;-80
2021/05/01 13:28:21;;;;;;;;;;;;;;;19.99;53.45;99835.34;4963289;28;19914;-80
2021/05/01 13:31:09;;;;;;;;;;;;;;;19.94;53.66;99841.28;4978191;28;19914;-80
2021/05/01 13:33:54;;;;;;;;;;;;;;;19.92;53.97;99847.19;4976157;28;19914;-79
2021/05/01 13:36:39;;;;;;;;;;;;;;;19.87;54.17;99853.09;4974631;28;19914;-79
2021/05/01 13:39:25;;;;;;;;;;;;;;;19.86;54.53;99850.78;4966313;28;19914;-81
2021/05/01 13:42:14;;;;;;;;;;;;;;;19.87;54.43;99849.56;4981282;28;20306;-78
2021/05/01 13:44:59;;;;;;;;;;;;;;;19.88;54.76;99848.38;4977181;28;19918;-79
2021/05/01 13:47:47;;;;;;;;;;;;;;;19.85;54.71;99852.75;4976824;28;19914;-79
2021/05/01 13:50:32;;;;;;;;;;;;;;;19.83;54.88;99838.53;4979237;28;19918;-78
2021/05/01 13:53:23;;;;;;;;;;;;;;;19.81;55.01;99851.94;4963098;28;20390;-77
2021/05/01 13:56:08;;;;;;;;;;;;;;;19.82;55.26;99848.00;4966370;28;19914;-77
2021/05/01 13:58:53;;;;;;;;;;;;;;;19.81;55.08;99848.41;4976875;28;20378;-76
2021/05/01 14:01:45;;;;;;;;;;;;;;;19.80;55.27;99844.09;4977045;28;19914;-78
2021/05/01 14:04:32;;;;;;;;;;;;;;;19.77;55.47;99842.09;4980600;28;19918;-78
2021/05/01 14:07:18;;;;;;;;;;;;;;;19.76;55.38;99832.28;4978261;28;19914;-77
2021/05/01 14:10:03;;;;;;;;;;;;;;;19.76;55.35;99833.03;4976756;28;19925;-79
2021/05/01 14:12:48;;;;;;;;;;;;;;;19.75;55.33;99827.94;4980402;28;19914;-79
2021/05/01 14:15:34;;;;;;;;;;;;;;;19.71;55.18;99816.13;4978610;28;19918;-78
2021/05/01 14:18:20;;;;;;;;;;;;;;;19.69;55.19;99821.25;4976563;28;19914;-77